Flight Track Log - Related Links

Times and Time Zones

All times are in EDT time to prevent confusion due to time zone crossing. See the CCA4323 flight status page for this flight to view local times or setup timezone preferences in your user account.

Time Position Orientation Groundspeed Altitude Reporting Facility
EDT Latitude Longitude Course Direction KTS MPH feet Rate Location/Type
Wed 08:47:00 AM 30.3298 104.2513 133° Southeast  Level Estimated
Wed 08:48:00 AM 30.2675 104.3271 134° Southeast  Level Estimated
Wed 08:49:00 AM 30.2052 104.4028 134° Southeast  Level Estimated
Wed 08:50:00 AM 30.1428 104.4784 134° Southeast  Level Estimated
Wed 08:51:00 AM 30.0804 104.5540 134° Southeast  Level Estimated
Wed 08:52:00 AM 30.0179 104.6294 134° Southeast  Level Estimated
Wed 08:53:00 AM 29.9554 104.7047 134° Southeast  Level Estimated
Wed 08:54:00 AM 29.8928 104.7800 134° Southeast  Level Estimated
Wed 08:55:00 AM 29.8302 104.8551 134° Southeast  Level Estimated
Wed 08:56:00 AM 29.7676 104.9302 134° Southeast  Level Estimated
Wed 08:57:00 AM 29.7049 105.0051 134° Southeast  Level Estimated
Wed 08:58:00 AM 29.6422 105.0800 134° Southeast  Level Estimated
Wed 08:59:00 AM 29.5794 105.1547 134° Southeast  Level Estimated
Wed 09:00:00 AM 29.5166 105.2294 134° Southeast  Level Estimated
Wed 09:01:00 AM 29.4538 105.3040 134° Southeast  Level Estimated
Wed 09:02:00 AM 29.3909 105.3785 134° Southeast  Level Estimated
Wed 09:03:00 AM 29.3279 105.4529 134° Southeast  Level Estimated
Wed 09:04:00 AM 29.2650 105.5272 134° Southeast  Level Estimated
Wed 09:05:00 AM 29.2020 105.6014 134° Southeast  Level Estimated
Wed 09:06:00 AM 29.1389 105.6756 134° Southeast  Level Estimated
Wed 09:07:00 AM 29.0758 105.7496 134° Southeast  Level Estimated
Wed 09:08:00 AM 29.0127 105.8235 134° Southeast  Level Estimated
Wed 09:09:00 AM 28.9495 105.8974 134° Southeast  Level Estimated
Wed 09:10:00 AM 28.8863 105.9711 134° Southeast  Level Estimated
Wed 09:11:00 AM 28.8230 106.0448 134° Southeast  Level Estimated
Wed 09:12:00 AM 28.7597 106.1184 134° Southeast  Level Estimated
Wed 09:13:00 AM 28.6964 106.1919 134° Southeast  Level Estimated
Wed 09:14:00 AM 28.6330 106.2653 135° Southeast  Level Estimated
Wed 09:15:00 AM 28.5696 106.3386 135° Southeast  Level Estimated
Wed 09:16:00 AM 28.5061 106.4118 135° Southeast  Level Estimated
Wed 09:17:00 AM 28.4427 106.4850 135° Southeast  Level Estimated
Wed 09:18:00 AM 28.3791 106.5580 135° Southeast  Level Estimated
Wed 09:19:00 AM 28.3156 106.6310 135° Southeast  Level Estimated
Wed 09:20:00 AM 28.2519 106.7039 135° Southeast  Level Estimated
Wed 09:21:00 AM 28.1883 106.7767 135° Southeast  Level Estimated
Wed 09:22:00 AM 28.1246 106.8494 135° Southeast  Level Estimated
Wed 09:23:00 AM 28.0609 106.9220 135° Southeast  Level Estimated
Wed 09:24:00 AM 27.9971 106.9945 135° Southeast  Level Estimated
Wed 09:25:00 AM 27.9333 107.0670 135° Southeast  Level Estimated
Wed 09:26:00 AM 27.8695 107.1393 135° Southeast  Level Estimated
Wed 09:27:00 AM 27.8056 107.2116 135° Southeast  Level Estimated
Wed 09:28:00 AM 27.7417 107.2838 135° Southeast  Level Estimated
Wed 09:29:00 AM 27.6777 107.3559 135° Southeast  Level Estimated
Wed 09:30:00 AM 27.6138 107.4279 135° Southeast  Level Estimated
Wed 09:31:00 AM 27.5497 107.4999 135° Southeast  Level Estimated
Wed 09:32:00 AM 27.4857 107.5717 135° Southeast  Level Estimated
Wed 09:33:00 AM 27.4216 107.6435 135° Southeast  Level Estimated
Wed 09:34:00 AM 27.3574 107.7152 135° Southeast  Level Estimated
Wed 09:35:00 AM 27.2932 107.7868 135° Southeast  Level Estimated
Wed 09:36:00 AM 27.2290 107.8583 135° Southeast  Level Estimated
Wed 09:37:00 AM 27.1648 107.9297 135° Southeast  Level Estimated
Wed 09:38:00 AM 27.1005 108.0011 135° Southeast  Level Estimated
Wed 09:39:00 AM 27.0362 108.0724 135° Southeast  Level Estimated
Wed 09:40:00 AM 26.9718 108.1436 135° Southeast  Level Estimated
Wed 09:41:00 AM 26.9074 108.2147 135° Southeast  Level Estimated
Wed 09:42:00 AM 26.8430 108.2857 135° Southeast  Level Estimated
Wed 09:43:00 AM 26.7786 108.3567 135° Southeast  Level Estimated
Wed 09:44:00 AM 26.7141 108.4275 136° Southeast  Level Estimated
Wed 09:45:00 AM 26.6495 108.4983 136° Southeast  Level Estimated
Wed 09:46:00 AM 26.5850 108.5690 136° Southeast  Level Estimated
Wed 09:47:00 AM 26.5204 108.6397 136° Southeast  Level Estimated
Wed 09:48:00 AM 26.4557 108.7102 136° Southeast  Level Estimated
Wed 09:49:00 AM 26.3911 108.7807 136° Southeast  Level Estimated
Wed 09:50:00 AM 26.3263 108.8511 136° Southeast  Level Estimated
Wed 09:51:00 AM 26.2616 108.9214 136° Southeast  Level Estimated
Wed 09:52:00 AM 26.1968 108.9916 136° Southeast  Level Estimated
Wed 09:53:00 AM 26.1320 109.0618 136° Southeast  Level Estimated
Wed 09:54:00 AM 26.0672 109.1319 136° Southeast  Level Estimated
Wed 09:55:00 AM 26.0023 109.2019 136° Southeast  Level Estimated
Wed 09:56:00 AM 25.9374 109.2718 136° Southeast  Level Estimated
Wed 09:57:00 AM 25.8724 109.3416 136° Southeast  Level Estimated
Wed 09:58:00 AM 25.8075 109.4114 136° Southeast  Level Estimated
Wed 09:59:00 AM 25.7425 109.4811 136° Southeast  Level Estimated
Wed 10:00:00 AM 25.6774 109.5507 136° Southeast  Level Estimated
Wed 10:01:00 AM 25.6124 109.6202 136° Southeast  Level Estimated
Wed 10:02:00 AM 25.5472 109.6897 136° Southeast  Level Estimated
Wed 10:03:00 AM 25.4821 109.7591 136° Southeast  Level Estimated
Wed 10:04:00 AM 25.4169 109.8284 136° Southeast  Level Estimated
Wed 10:05:00 AM 25.3517 109.8977 136° Southeast  Level Estimated

Login

Don't have an account? Register now (free) for customized features, flight alerts, and more!